createdAt,value
2024-02-24T00:00:33.197Z,101855.13
2024-02-24T00:18:30.878Z,101874.34
2024-02-24T01:14:03.014Z,101842.94
2024-02-24T01:19:24.067Z,101853.25
2024-02-24T01:21:58.964Z,101846.16
2024-02-24T01:24:57.374Z,101839.19
2024-02-24T01:28:05.486Z,101833.31
2024-02-24T01:31:26.125Z,101832.66
2024-02-24T01:33:55.478Z,101833.81
2024-02-24T01:36:23.961Z,101842.06
2024-02-24T01:38:57.693Z,101838.78
2024-02-24T01:41:26.810Z,101838.09
2024-02-24T01:43:56.649Z,101846.34
2024-02-24T01:46:25.103Z,101844.84
2024-02-24T01:48:53.578Z,101837.03
2024-02-24T01:51:25.116Z,101832.09
2024-02-24T01:57:04.233Z,101821.13
2024-02-24T01:59:58.564Z,101815.16
2024-02-24T02:12:28.705Z,101834.59
2024-02-24T02:17:42.886Z,101837.13
2024-02-24T02:22:52.656Z,101836.03
2024-02-24T02:25:21.207Z,101833.72
2024-02-24T02:28:01.096Z,101841.31
2024-02-24T02:30:29.884Z,101853.38
2024-02-24T02:33:05.014Z,101854.72
2024-02-24T02:35:47.254Z,101854.16
2024-02-24T02:38:18.821Z,101851.88
2024-02-24T02:47:17.636Z,101855.63
2024-02-24T03:36:59.801Z,101879.19
2024-02-24T03:39:38.223Z,101877.59
2024-02-24T03:42:07.312Z,101879.38
2024-02-24T03:44:36.017Z,101883.88
2024-02-24T03:47:04.386Z,101882.25
2024-02-24T03:49:32.838Z,101890.25
2024-02-24T03:52:01.361Z,101891.28
2024-02-24T03:54:29.673Z,101891.38
2024-02-24T03:56:58.039Z,101891.47
2024-02-24T03:59:26.391Z,101888.03
2024-02-24T04:01:54.712Z,101884.56
2024-02-24T04:04:23.046Z,101888.31
2024-02-24T04:06:51.434Z,101887.53
2024-02-24T04:09:19.801Z,101894.88
2024-02-24T04:11:50.638Z,101885.13
2024-02-24T04:14:19.129Z,101879.03
2024-02-24T04:16:47.962Z,101881.81
2024-02-24T04:19:16.295Z,101876.63
2024-02-24T04:21:44.712Z,101886.59
2024-02-24T04:24:13.054Z,101889.44
2024-02-24T04:26:41.555Z,101889.53
2024-02-24T04:29:09.981Z,101888.72
2024-02-24T04:31:38.411Z,101885.31
2024-02-24T04:34:06.909Z,101882.75
2024-02-24T04:36:35.814Z,101889.00
2024-02-24T04:39:04.060Z,101883.75
2024-02-24T04:41:32.364Z,101877.50
2024-02-24T04:44:00.879Z,101878.44
2024-02-24T04:46:29.143Z,101880.34
2024-02-24T04:48:57.590Z,101879.53
2024-02-24T04:51:25.924Z,101876.97
2024-02-24T04:53:56.435Z,101874.22
2024-02-24T04:56:24.865Z,101866.31
2024-02-24T04:58:53.330Z,101872.59
2024-02-24T05:01:23.704Z,101866.47
2024-02-24T05:03:52.093Z,101867.41
2024-02-24T05:06:20.542Z,101869.25
2024-02-24T05:08:48.957Z,101875.50
2024-02-24T05:11:17.634Z,101887.16
2024-02-24T05:13:46.245Z,101878.28
2024-02-24T05:16:15.867Z,101877.50
2024-02-24T05:18:44.331Z,101880.34
2024-02-24T05:21:24.769Z,101882.94
2024-02-24T05:23:53.271Z,101890.09
2024-02-24T05:26:29.042Z,101883.03
2024-02-24T05:28:58.170Z,101887.47
2024-02-24T05:31:26.557Z,101882.13
2024-02-24T05:33:56.474Z,101887.47
2024-02-24T05:36:26.743Z,101880.53
2024-02-24T05:38:55.032Z,101889.47
2024-02-24T05:41:23.390Z,101886.03
2024-02-24T05:43:52.239Z,101901.16
2024-02-24T05:46:20.647Z,101898.59
2024-02-24T05:48:49.118Z,101896.09
2024-02-24T05:51:18.845Z,101898.09
2024-02-24T05:53:47.280Z,101901.69
2024-02-24T05:56:15.935Z,101897.28
2024-02-24T05:58:44.437Z,101894.63
2024-02-24T06:01:16.600Z,101892.03
2024-02-24T06:03:45.335Z,101897.47
2024-02-24T06:06:14.523Z,101893.94
2024-02-24T06:08:43.057Z,101895.72
2024-02-24T06:11:11.985Z,101887.75
2024-02-24T06:13:40.437Z,101890.50
2024-02-24T06:16:09.751Z,101888.72
2024-02-24T06:18:38.223Z,101885.16
2024-02-24T06:21:10.981Z,101893.16
2024-02-24T06:23:39.470Z,101904.78
2024-02-24T06:26:07.886Z,101901.31
2024-02-24T06:28:37.496Z,101905.91
2024-02-24T06:31:06.041Z,101902.53
2024-02-24T06:33:34.678Z,101899.09
2024-02-24T06:36:04.908Z,101887.56
2024-02-24T06:38:33.248Z,101881.38
2024-02-24T06:41:01.744Z,101878.78
2024-02-24T06:43:30.065Z,101886.03
2024-02-24T06:46:00.491Z,101879.81
2024-02-24T06:48:29.401Z,101876.38
2024-02-24T06:50:58.024Z,101872.00
2024-02-24T06:53:26.351Z,101882.75
2024-02-24T06:55:55.229Z,101881.09
2024-02-24T06:58:23.759Z,101885.75
2024-02-24T07:00:52.055Z,101879.63
2024-02-24T07:03:22.366Z,101876.97
2024-02-24T07:05:50.822Z,101877.94
2024-02-24T07:08:19.299Z,101886.84
2024-02-24T07:10:47.609Z,101892.19
2024-02-24T07:13:16.015Z,101884.38
2024-02-24T07:15:44.365Z,101888.03
2024-02-24T07:18:12.768Z,101881.94
2024-02-24T07:20:41.215Z,101880.31
2024-02-24T07:23:09.606Z,101882.03
2024-02-24T07:25:39.633Z,101882.81
2024-02-24T07:28:08.439Z,101880.06
2024-02-24T07:30:36.845Z,101881.00
2024-02-24T07:33:05.665Z,101890.72
2024-02-24T07:35:34.231Z,101892.44
2024-02-24T07:38:02.744Z,101885.28
2024-02-24T07:40:31.323Z,101883.56
2024-02-24T07:42:59.989Z,101893.38
2024-02-24T07:45:28.560Z,101891.56
2024-02-24T07:47:57.287Z,101892.53
2024-02-24T07:50:25.946Z,101899.63
2024-02-24T07:52:54.335Z,101898.88
2024-02-24T07:55:23.227Z,101897.06
2024-02-24T07:57:51.592Z,101886.47
2024-02-24T08:00:21.586Z,101887.38
2024-02-24T08:02:50.003Z,101893.72
2024-02-24T08:05:20.338Z,101891.13
2024-02-24T08:07:48.726Z,101900.91
2024-02-24T08:10:18.088Z,101896.53
2024-02-24T08:12:46.451Z,101893.97
2024-02-24T08:15:14.869Z,101892.16
2024-02-24T08:17:46.356Z,101883.31
2024-02-24T08:20:15.497Z,101880.72
2024-02-24T08:22:45.775Z,101877.34
2024-02-24T08:25:14.110Z,101884.59
2024-02-24T08:27:42.464Z,101888.34
2024-02-24T08:30:11.339Z,101890.38
2024-02-24T08:32:39.888Z,101893.28
2024-02-24T08:35:08.887Z,101881.03
2024-02-24T08:37:37.389Z,101877.63
2024-02-24T08:40:06.109Z,101898.22
2024-02-24T08:42:34.414Z,101886.84
2024-02-24T08:45:02.758Z,101891.34
2024-02-24T08:47:31.184Z,101895.84
2024-02-24T08:49:59.564Z,101896.94
2024-02-24T08:52:35.482Z,101890.94
2024-02-24T08:55:11.035Z,101891.19
2024-02-24T08:57:39.301Z,101881.63
2024-02-24T09:00:08.362Z,101880.91
2024-02-24T09:02:36.781Z,101873.00
2024-02-24T09:05:06.029Z,101878.50
2024-02-24T09:07:34.371Z,101865.28
2024-02-24T09:10:04.896Z,101864.59
2024-02-24T09:12:34.829Z,101875.47
2024-02-24T09:15:03.277Z,101873.81
2024-02-24T09:17:31.918Z,101875.59
2024-02-24T09:20:02.389Z,101876.56
2024-02-24T09:22:30.793Z,101863.25
2024-02-24T09:25:00.974Z,101859.63
2024-02-24T09:27:29.252Z,101858.69
2024-02-24T09:29:57.739Z,101868.50
2024-02-24T09:32:26.205Z,101859.78
2024-02-24T09:34:55.056Z,101861.69
2024-02-24T09:37:23.408Z,101858.25
2024-02-24T09:39:51.687Z,101853.06
2024-02-24T09:42:20.012Z,101861.13
2024-02-24T09:44:49.505Z,101858.69
2024-02-24T09:47:19.531Z,101858.84
2024-02-24T09:49:48.146Z,101867.84
2024-02-24T09:52:19.449Z,101857.38
2024-02-24T09:54:48.579Z,101854.78
2024-02-24T09:57:24.699Z,101864.56
2024-02-24T09:59:54.211Z,101852.28
2024-02-24T10:02:22.808Z,101855.94
2024-02-24T10:04:53.306Z,101849.84
2024-02-24T10:07:21.731Z,101853.50
2024-02-24T10:09:50.131Z,101856.25
2024-02-24T10:12:19.027Z,101854.59
2024-02-24T10:14:47.493Z,101854.69
2024-02-24T10:17:17.196Z,101858.41
2024-02-24T10:19:48.446Z,101855.00
2024-02-24T10:22:19.824Z,101854.13
2024-02-24T10:24:48.673Z,101845.28
2024-02-24T10:27:20.116Z,101854.13
2024-02-24T10:29:52.978Z,101849.75
2024-02-24T10:32:23.633Z,101848.03
2024-02-24T10:34:54.826Z,101839.19
2024-02-24T10:37:25.562Z,101847.16
2024-02-24T10:39:55.666Z,101843.63
2024-02-24T10:42:28.153Z,101843.63
2024-02-24T10:44:58.041Z,101848.94
2024-02-24T10:47:27.212Z,101850.69
2024-02-24T10:49:55.692Z,101843.63
2024-02-24T10:52:24.830Z,101839.19
2024-02-24T10:54:54.497Z,101842.63
2024-02-24T10:57:23.101Z,101839.13
2024-02-24T10:59:51.589Z,101837.22
2024-02-24T11:02:22.979Z,101838.97
2024-02-24T11:04:53.740Z,101842.53
2024-02-24T11:07:25.455Z,101839.03
2024-02-24T11:09:56.960Z,101838.19
2024-02-24T11:12:25.288Z,101834.66
2024-02-24T11:14:57.311Z,101839.03
2024-02-24T11:17:48.939Z,101830.22
2024-02-24T11:20:36.093Z,101828.56
2024-02-24T11:23:26.960Z,101829.41
2024-02-24T11:26:27.323Z,101820.66
2024-02-24T11:29:05.907Z,101832.16
2024-02-24T11:31:37.143Z,101825.97
2024-02-24T11:34:13.178Z,101824.25
2024-02-24T11:36:43.277Z,101828.72
2024-02-24T11:39:15.177Z,101836.75
2024-02-24T11:41:43.845Z,101825.47
2024-02-24T11:44:14.305Z,101830.03
2024-02-24T11:46:47.796Z,101831.88
2024-02-24T11:49:19.302Z,101829.38
2024-02-24T11:51:47.915Z,101834.84
2024-02-24T11:54:19.042Z,101837.66
2024-02-24T11:56:47.510Z,101822.72
2024-02-24T11:59:17.658Z,101830.69
2024-02-24T12:01:47.100Z,101830.69
2024-02-24T12:04:24.391Z,101828.09
2024-02-24T12:06:53.535Z,101830.75
2024-02-24T12:09:22.550Z,101828.25
2024-02-24T12:11:51.257Z,101830.06
2024-02-24T12:14:20.289Z,101833.63
2024-02-24T12:16:49.228Z,101825.66
2024-02-24T12:19:17.698Z,101827.44
2024-02-24T12:21:50.063Z,101824.00
2024-02-24T12:24:39.980Z,101826.88
2024-02-24T12:27:11.395Z,101824.28
2024-02-24T12:29:39.766Z,101831.50
2024-02-24T12:32:08.971Z,101828.16
2024-02-24T12:34:38.587Z,101830.09
2024-02-24T12:37:09.318Z,101828.53
2024-02-24T12:39:42.883Z,101827.72
2024-02-24T12:42:11.242Z,101822.56
2024-02-24T12:44:39.693Z,101828.88
2024-02-24T12:47:08.165Z,101825.38
2024-02-24T12:49:37.238Z,101821.94
2024-02-24T12:52:06.565Z,101828.25
2024-02-24T12:54:35.039Z,101822.19
2024-02-24T12:57:03.590Z,101825.00
2024-02-24T12:59:32.021Z,101831.28
2024-02-24T13:02:00.564Z,101820.75
2024-02-24T13:04:31.948Z,101835.06
2024-02-24T13:07:00.935Z,101831.50
2024-02-24T13:09:29.476Z,101836.81
2024-02-24T13:11:58.807Z,101833.31
2024-02-24T13:14:27.424Z,101833.38
2024-02-24T13:16:56.040Z,101838.69
2024-02-24T13:19:24.440Z,101836.03
2024-02-24T13:21:53.065Z,101851.09
2024-02-24T13:24:21.475Z,101859.19
2024-02-24T13:26:49.817Z,101847.81
2024-02-24T13:29:18.296Z,101857.59
2024-02-24T13:31:46.936Z,101855.97
2024-02-24T13:34:16.036Z,101848.94
2024-02-24T13:36:46.359Z,101849.94
2024-02-24T13:39:14.787Z,101859.69
2024-02-24T13:41:43.203Z,101858.84
2024-02-24T13:44:14.390Z,101865.00
2024-02-24T13:46:54.274Z,101868.44
2024-02-24T13:49:22.872Z,101862.19
2024-02-24T13:51:51.226Z,101861.28
2024-02-24T13:54:20.293Z,101862.69
2024-02-24T13:56:49.486Z,101869.34
2024-02-24T13:59:17.968Z,101867.06
2024-02-24T14:01:46.403Z,101865.59
2024-02-24T14:04:14.972Z,101864.13
2024-02-24T14:06:44.606Z,101862.69
2024-02-24T14:09:13.101Z,101862.75
2024-02-24T14:11:42.208Z,101860.09
2024-02-24T14:14:10.602Z,101860.09
2024-02-24T14:16:46.015Z,101860.22
2024-02-24T14:19:14.710Z,101853.25
2024-02-24T14:21:44.092Z,101855.06
2024-02-24T14:24:12.481Z,101850.81
2024-02-24T14:26:40.953Z,101853.59
2024-02-24T14:29:09.346Z,101855.63
2024-02-24T14:31:37.854Z,101846.22
2024-02-24T14:34:06.358Z,101842.81
2024-02-24T14:36:34.749Z,101834.94
2024-02-24T14:39:06.069Z,101832.34
2024-02-24T14:41:34.758Z,101835.13
2024-02-24T14:44:03.120Z,101835.19
2024-02-24T14:46:31.368Z,101831.53
2024-02-24T14:48:59.866Z,101832.34
2024-02-24T14:51:28.681Z,101840.25
2024-02-24T14:53:57.048Z,101834.88
2024-02-24T14:56:25.412Z,101842.81
2024-02-24T14:58:53.725Z,101841.09
2024-02-24T15:01:22.287Z,101842.03
2024-02-24T15:03:50.855Z,101836.75
2024-02-24T15:06:19.470Z,101840.31
2024-02-24T15:08:48.088Z,101842.13
2024-02-24T15:11:25.077Z,101848.38
2024-02-24T15:13:53.432Z,101851.94
2024-02-24T15:16:21.801Z,101854.59
2024-02-24T15:18:50.214Z,101857.19
2024-02-24T15:21:18.602Z,101851.81
2024-02-24T15:23:47.036Z,101857.00
2024-02-24T15:26:15.717Z,101851.56
2024-02-24T15:28:44.052Z,101857.63
2024-02-24T15:31:12.402Z,101858.34
2024-02-24T15:33:40.897Z,101868.72
2024-02-24T15:36:09.789Z,101865.78
2024-02-24T15:38:38.145Z,101864.59
2024-02-24T15:41:06.518Z,101869.50
2024-02-24T15:43:34.797Z,101862.88
2024-02-24T15:46:03.106Z,101870.31
2024-02-24T15:48:31.484Z,101857.38
2024-02-24T15:51:00.517Z,101867.31
2024-02-24T15:53:28.921Z,101870.97
2024-02-24T15:55:59.567Z,101868.44
2024-02-24T15:58:31.212Z,101870.28
2024-02-24T16:01:02.688Z,101879.28
2024-02-24T16:03:31.493Z,101868.00
2024-02-24T16:06:00.263Z,101878.69
2024-02-24T16:08:32.693Z,101867.16
2024-02-24T16:11:01.290Z,101883.72
2024-02-24T16:13:29.897Z,101881.78
2024-02-24T16:16:01.068Z,101879.81
2024-02-24T16:18:30.198Z,101877.94
2024-02-24T16:20:59.041Z,101884.06
2024-02-24T16:23:27.632Z,101878.69
2024-02-24T16:25:56.052Z,101877.78
2024-02-24T16:28:25.137Z,101884.75
2024-02-24T16:31:07.927Z,101891.69
2024-02-24T16:33:36.545Z,101885.31
2024-02-24T16:36:05.346Z,101887.81
2024-02-24T16:38:37.492Z,101894.03
2024-02-24T16:41:06.271Z,101891.41
2024-02-24T16:43:35.384Z,101898.41
2024-02-24T16:46:06.842Z,101905.22
2024-02-24T16:48:40.377Z,101903.41
2024-02-24T16:51:08.923Z,101912.19
2024-02-24T16:54:06.612Z,101912.91
2024-02-24T16:56:35.383Z,101914.28
2024-02-24T16:59:12.609Z,101910.66
2024-02-24T17:02:04.488Z,101912.13
2024-02-24T17:04:32.948Z,101901.06
2024-02-24T17:07:02.071Z,101909.47
2024-02-24T17:09:30.877Z,101905.59
2024-02-24T17:11:59.420Z,101900.16
2024-02-24T17:14:27.912Z,101901.25
2024-02-24T17:16:56.465Z,101907.78
2024-02-24T17:19:25.101Z,101902.84
2024-02-24T17:22:04.594Z,101910.03
2024-02-24T17:24:46.024Z,101915.88
2024-02-24T17:27:14.345Z,101913.78
2024-02-24T17:29:45.614Z,101906.50
2024-02-24T17:32:15.281Z,101913.13
2024-02-24T17:35:06.010Z,101913.94
2024-02-24T17:37:37.433Z,101908.78
2024-02-24T17:40:09.109Z,101917.22
2024-02-24T17:42:37.649Z,101916.41
2024-02-24T17:45:08.962Z,101905.06
2024-02-24T17:47:37.753Z,101910.78
2024-02-24T17:50:06.997Z,101909.47
2024-02-24T17:52:35.499Z,101910.34
2024-02-24T17:55:09.884Z,101912.56
2024-02-24T17:57:38.683Z,101909.25
2024-02-24T18:00:10.613Z,101913.31
2024-02-24T18:02:42.150Z,101908.56
2024-02-24T18:05:11.868Z,101908.81
2024-02-24T18:07:40.802Z,101904.16
2024-02-24T18:10:09.475Z,101909.25
2024-02-24T18:12:38.123Z,101901.19
2024-02-24T18:15:06.962Z,101903.22
2024-02-24T18:17:35.556Z,101901.63
2024-02-24T18:20:04.136Z,101905.38
2024-02-24T18:22:32.401Z,101898.50
2024-02-24T18:25:01.400Z,101904.63
2024-02-24T18:27:29.963Z,101903.88
2024-02-24T18:30:01.681Z,101910.03
2024-02-24T18:32:32.510Z,101902.13
2024-02-24T18:35:00.954Z,101898.97
2024-02-24T18:37:29.304Z,101893.47
2024-02-24T18:40:03.963Z,101885.31
2024-02-24T18:42:32.489Z,101884.41
2024-02-24T18:45:06.157Z,101889.06
2024-02-24T18:47:34.643Z,101890.91
2024-02-24T18:50:03.232Z,101889.72
2024-02-24T18:52:31.607Z,101889.91
2024-02-24T18:55:09.074Z,101892.00
2024-02-24T18:57:37.923Z,101884.56
2024-02-24T19:00:13.466Z,101889.44
2024-02-24T19:02:44.041Z,101889.31
2024-02-24T19:05:13.360Z,101889.81
2024-02-24T19:07:53.026Z,101887.63
2024-02-24T19:13:37.687Z,101890.06
2024-02-24T19:19:38.430Z,101870.53
2024-02-24T19:22:45.390Z,101872.25
2024-02-24T19:25:20.442Z,101867.44
2024-02-24T19:28:01.427Z,101868.28
2024-02-24T19:30:36.566Z,101871.28
2024-02-24T19:33:10.759Z,101863.75
2024-02-24T19:36:01.373Z,101866.06
2024-02-24T19:38:36.261Z,101868.75
2024-02-24T19:43:51.924Z,101864.78
2024-02-24T19:46:33.073Z,101862.66
2024-02-24T19:49:04.227Z,101861.94
2024-02-24T19:54:32.737Z,101857.66
2024-02-24T19:57:07.974Z,101854.44
2024-02-24T19:59:43.611Z,101857.72
2024-02-24T20:02:18.503Z,101860.72
2024-02-24T20:04:46.916Z,101849.91
2024-02-24T20:10:07.000Z,101851.31
2024-02-24T20:12:38.212Z,101847.34
2024-02-24T20:15:07.043Z,101841.22
2024-02-24T20:17:35.458Z,101838.81
2024-02-24T20:20:07.451Z,101835.81
2024-02-24T20:22:35.789Z,101831.53
2024-02-24T20:25:05.145Z,101823.69
2024-02-24T20:27:33.748Z,101817.41
2024-02-24T20:30:05.409Z,101813.75
2024-02-24T20:32:36.558Z,101812.31
2024-02-24T20:35:05.712Z,101804.88
2024-02-24T20:37:38.170Z,101806.84
2024-02-24T20:40:07.131Z,101806.00
2024-02-24T20:42:35.526Z,101796.31
2024-02-24T20:45:08.576Z,101795.63
2024-02-24T20:47:37.183Z,101787.53
2024-02-24T20:50:13.010Z,101790.44
2024-02-24T20:52:42.063Z,101789.47
2024-02-24T20:55:12.397Z,101783.94
2024-02-24T20:57:46.906Z,101771.16
2024-02-24T21:00:16.205Z,101773.84
2024-02-24T21:02:45.286Z,101764.47
2024-02-24T21:05:13.840Z,101769.16
2024-02-24T21:07:42.271Z,101761.91
2024-02-24T21:10:42.851Z,101755.34
2024-02-24T21:16:04.030Z,101745.81
2024-02-24T21:18:35.593Z,101751.38
2024-02-24T21:21:05.574Z,101742.81
2024-02-24T21:23:36.662Z,101745.94
2024-02-24T21:26:10.047Z,101740.94
2024-02-24T21:28:38.490Z,101733.47
2024-02-24T21:31:06.838Z,101741.56
2024-02-24T21:33:45.108Z,101740.88
2024-02-24T21:36:23.912Z,101733.19
2024-02-24T21:38:55.218Z,101734.09
2024-02-24T21:41:37.930Z,101740.38
2024-02-24T21:44:42.856Z,101731.56
2024-02-24T21:53:04.188Z,101726.94
2024-02-24T21:55:46.723Z,101726.25
2024-02-24T21:58:48.566Z,101718.28
2024-02-24T22:01:35.575Z,101715.88
2024-02-24T22:12:37.070Z,101710.75
2024-02-24T22:18:35.401Z,101710.59
2024-02-24T22:21:07.172Z,101704.78
2024-02-24T22:23:38.584Z,101706.91
2024-02-24T22:26:07.741Z,101703.63
2024-02-24T22:28:39.491Z,101703.34
2024-02-24T22:31:07.858Z,101694.50
2024-02-24T22:33:42.877Z,101688.22
2024-02-24T22:36:13.434Z,101686.06
2024-02-24T22:38:41.916Z,101687.91
2024-02-24T22:41:10.313Z,101682.59
2024-02-24T22:43:38.779Z,101683.69
2024-02-24T22:46:09.004Z,101689.41
2024-02-24T22:48:37.434Z,101681.75
2024-02-24T22:53:41.994Z,101683.19
2024-02-24T22:56:10.328Z,101673.94
2024-02-24T22:58:38.676Z,101677.91
2024-02-24T23:01:06.977Z,101671.09
2024-02-24T23:03:35.782Z,101664.13
2024-02-24T23:06:04.479Z,101668.72
2024-02-24T23:08:32.844Z,101664.75
2024-02-24T23:11:02.481Z,101670.44
2024-02-24T23:13:30.916Z,101667.91
2024-02-24T23:15:59.359Z,101661.91
2024-02-24T23:18:28.456Z,101664.53
2024-02-24T23:20:57.215Z,101661.69
2024-02-24T23:23:27.163Z,101654.88
2024-02-24T23:25:55.842Z,101659.13
2024-02-24T23:28:24.424Z,101659.59
2024-02-24T23:30:52.838Z,101654.53
2024-02-24T23:33:21.347Z,101647.41
2024-02-24T23:35:56.243Z,101647.84
2024-02-24T23:38:24.538Z,101655.22
2024-02-24T23:42:01.060Z,101654.53
2024-02-24T23:45:07.815Z,101650.56
2024-02-24T23:54:07.352Z,101634.06
2024-02-24T23:56:39.212Z,101635.44
